Terminal Aerodrome Forecast
Issued by NWS

Home | Current Version | Previous Version | Text Only | Print | Product List | Glossary On
Versions: 1 2 3 4 5 6 7 8 9 10 11 12 13 14 15 16 17 18 19 20 21 22 23 24 25 26
000
FTUS46 KMTR 230700 AAA
TAFSFO
TAF AMD
KSFO 230726Z 2307/2412 27005KT P6SM FEW012
     FM231000 20004KT P6SM BKN010 OVC015
     FM231800 VRB04KT P6SM FEW010 SCT015
     FM232100 28013KT P6SM FEW020
     FM240500 28010KT P6SM FEW020
     FM240900 VRB03KT P6SM BKN015=

USA.gov is the U.S. government's official web portal to all federal, state and local government web resources and services.